Time;durP1;ratioP1;P1;durP2;ratioP2;P2;SDS_P1;SDS_P2;PMS_P1;PMS_P2;Temp;Humidity;BMP_temperature;BMP_pressure;BME280_temperature;BME280_humidity;BME280_pressure;Samples;Min_cycle;Max_cycle;Signal;HPM_P1;HPM_P2
2021/08/08 00:02:13;;;;;;;2.45;1.92;;;;;;;22.47;56.23;100042.69;3482223;41;20416;-70
2021/08/08 00:04:40;;;;;;;3.35;1.83;;;;;;;22.60;56.02;100034.84;3482397;41;20042;-69
2021/08/08 00:07:06;;;;;;;4.05;1.75;;;;;;;22.52;56.06;100043.16;3482053;41;20175;-69
2021/08/08 00:09:32;;;;;;;2.45;1.70;;;;;;;22.29;56.67;100044.91;3482149;41;20042;-68
2021/08/08 00:11:57;;;;;;;2.45;1.80;;;;;;;22.78;55.66;100041.19;3481876;41;20053;-68
2021/08/08 00:14:24;;;;;;;2.17;1.60;;;;;;;22.67;55.93;100046.38;3481334;41;20048;-69
2021/08/08 00:16:49;;;;;;;2.25;1.83;;;;;;;22.61;55.88;100057.22;3481445;41;20428;-69
2021/08/08 00:19:15;;;;;;;7.13;2.70;;;;;;;21.54;58.51;100059.09;3481384;41;20038;-69
2021/08/08 00:21:41;;;;;;;10.07;2.78;;;;;;;21.93;58.17;100059.72;3481454;41;20058;-69
2021/08/08 00:24:07;;;;;;;7.50;2.80;;;;;;;22.19;57.86;100051.69;3471756;41;20041;-69
2021/08/08 00:26:33;;;;;;;8.02;2.75;;;;;;;21.75;58.84;100056.69;3472716;41;20058;-68
2021/08/08 00:28:59;;;;;;;7.57;2.63;;;;;;;21.97;57.50;100058.56;3472244;41;20061;-68
2021/08/08 00:31:25;;;;;;;6.80;2.78;;;;;;;22.37;56.44;100058.09;3472662;41;20406;-68
2021/08/08 00:33:53;;;;;;;6.57;2.65;;;;;;;21.99;57.80;100059.28;3472610;41;20073;-69
2021/08/08 00:36:20;;;;;;;3.65;2.30;;;;;;;22.19;57.10;100045.69;3472732;41;20060;-69
2021/08/08 00:38:46;;;;;;;3.38;2.33;;;;;;;22.40;57.43;100057.84;3472747;41;20081;-69
2021/08/08 00:46:22;;;;;;;3.75;2.10;;;;;;;21.55;60.88;100058.13;3477242;41;20059;-69
2021/08/08 00:48:50;;;;;;;2.90;2.20;;;;;;;22.07;58.40;100051.78;3462950;41;20134;-68
2021/08/08 00:51:16;;;;;;;4.93;2.30;;;;;;;21.81;59.74;100053.69;3473001;41;20054;-69
2021/08/08 00:53:42;;;;;;;5.32;1.98;;;;;;;22.11;59.22;100051.44;3472690;41;20482;-71
2021/08/08 00:56:08;;;;;;;3.70;2.13;;;;;;;22.01;59.35;100063.41;3463650;41;20142;-69
2021/08/08 00:58:37;;;;;;;5.03;1.90;;;;;;;22.04;59.66;100058.03;3472961;41;20049;-69
2021/08/08 01:01:04;;;;;;;4.03;2.20;;;;;;;21.76;59.51;100053.19;3472328;41;20037;-71
2021/08/08 01:03:31;;;;;;;7.47;3.00;;;;;;;21.38;59.67;100047.34;3472461;41;20053;-68
2021/08/08 01:06:05;;;;;;;7.97;3.20;;;;;;;21.45;59.74;100057.16;3472638;41;20038;-70
2021/08/08 01:08:31;;;;;;;8.05;3.35;;;;;;;21.33;59.66;100063.19;3463621;41;20042;-69
2021/08/08 01:11:00;;;;;;;11.50;3.85;;;;;;;20.95;60.15;100053.84;3472407;41;20045;-68
2021/08/08 01:13:27;;;;;;;6.68;3.45;;;;;;;21.24;59.71;100056.09;3472199;41;20130;-68
2021/08/08 01:15:57;;;;;;;5.60;2.80;;;;;;;21.09;60.26;100054.59;3463235;41;20406;-68
2021/08/08 01:18:24;;;;;;;8.40;3.63;;;;;;;20.99;61.00;100044.97;3472356;41;20394;-70
2021/08/08 01:20:51;;;;;;;8.23;3.10;;;;;;;20.94;60.93;100057.34;3472695;41;20038;-71
2021/08/08 01:23:18;;;;;;;5.30;3.10;;;;;;;21.57;59.03;100052.84;3463081;41;20131;-68
2021/08/08 01:25:46;;;;;;;8.15;3.00;;;;;;;20.77;61.69;100050.78;3472699;41;20151;-68
2021/08/08 01:28:12;;;;;;;9.60;3.38;;;;;;;21.02;60.64;100045.59;3472347;41;20050;-68
2021/08/08 01:30:38;;;;;;;6.72;3.15;;;;;;;21.21;60.17;100048.56;3463319;41;20040;-70
2021/08/08 01:33:08;;;;;;;5.63;2.70;;;;;;;21.32;59.92;100048.63;3463440;41;20042;-69
2021/08/08 01:35:33;;;;;;;6.20;3.50;;;;;;;21.15;61.07;100051.56;3472457;41;20338;-69
2021/08/08 01:38:00;;;;;;;6.97;3.22;;;;;;;21.17;61.51;100044.53;3472273;41;20049;-68
2021/08/08 01:40:56;;;;;;;9.23;2.97;;;;;;;21.23;61.36;100045.84;3472557;41;20039;-68
2021/08/08 01:43:28;;;;;;;7.28;3.05;;;;;;;20.96;62.85;100045.16;3473840;41;20318;-69
2021/08/08 01:46:03;;;;;;;4.10;2.75;;;;;;;21.49;61.76;100040.47;3473579;41;20295;-67
2021/08/08 01:48:34;;;;;;;9.10;3.22;;;;;;;21.91;60.04;100038.31;3472885;41;20056;-67
2021/08/08 01:51:00;;;;;;;6.55;2.95;;;;;;;21.79;62.39;100039.19;3474669;41;20051;-67
2021/08/08 01:53:27;;;;;;;5.63;2.90;;;;;;;22.46;59.41;100032.44;3483076;41;20154;-69
2021/08/08 01:55:53;;;;;;;4.63;2.55;;;;;;;21.88;60.77;100034.19;3474168;41;20390;-68
2021/08/08 01:58:20;;;;;;;4.32;2.53;;;;;;;22.08;61.03;100036.16;3483277;41;20048;-70
2021/08/08 02:00:50;;;;;;;5.88;2.50;;;;;;;22.13;60.33;100036.63;3474298;41;20042;-70
2021/08/08 02:03:16;;;;;;;6.30;3.03;;;;;;;21.55;61.79;100040.03;3483624;41;20045;-69
2021/08/08 02:05:44;;;;;;;6.63;2.92;;;;;;;21.83;62.11;100041.47;3486140;41;20227;-70
2021/08/08 02:10:39;;;;;;;7.45;3.10;;;;;;;21.93;60.82;100047.63;3482374;41;20065;-70
2021/08/08 02:13:07;;;;;;;6.72;2.95;;;;;;;22.03;60.84;100043.41;3480471;41;20509;-70
2021/08/08 02:15:34;;;;;;;6.95;3.00;;;;;;;21.61;62.58;100043.94;3490669;40;20044;-71
2021/08/08 02:20:29;;;;;;;6.82;2.90;;;;;;;22.04;61.98;100050.25;3478184;41;20517;-71
2021/08/08 02:22:55;;;;;;;5.07;2.95;;;;;;;21.59;63.33;100048.38;3477987;41;20050;-71
2021/08/08 02:25:21;;;;;;;3.97;2.97;;;;;;;21.92;61.92;100050.34;3477210;41;20046;-70
2021/08/08 02:27:47;;;;;;;9.38;3.00;;;;;;;22.00;62.67;100046.25;3477323;41;20122;-73
2021/08/08 02:30:12;;;;;;;4.35;2.53;;;;;;;21.95;61.18;100044.91;3474929;41;20494;-70
2021/08/08 02:32:39;;;;;;;6.78;2.80;;;;;;;21.08;64.95;100052.09;3475216;41;20042;-73
2021/08/08 02:35:05;;;;;;;4.13;2.83;;;;;;;21.48;64.35;100048.34;3473402;41;20058;-69
2021/08/08 02:52:27;;;;;;;6.55;2.80;;;;;;;21.79;62.84;100073.66;3484054;41;20050;-69
2021/08/08 02:54:53;;;;;;;7.20;3.00;;;;;;;20.84;65.66;100071.88;3474020;41;20489;-69
2021/08/08 02:57:19;;;;;;;5.00;3.00;;;;;;;20.71;65.94;100074.47;3476560;41;20050;-69
2021/08/08 02:59:46;;;;;;;10.88;3.03;;;;;;;20.52;67.32;100082.63;3477912;41;20049;-71
2021/08/08 03:02:12;;;;;;;6.20;2.88;;;;;;;20.24;68.93;100097.47;3477051;41;20414;-69
2021/08/08 03:04:38;;;;;;;5.88;2.70;;;;;;;20.20;69.10;100099.44;3475551;41;20097;-74
2021/08/08 03:07:05;;;;;;;5.72;2.88;;;;;;;20.64;65.82;100086.13;3475973;41;20130;-70
2021/08/08 03:09:32;;;;;;;4.15;2.95;;;;;;;20.49;67.18;100090.59;3478696;41;20057;-71
2021/08/08 03:11:58;;;;;;;6.30;2.90;;;;;;;20.51;67.19;100087.91;3477926;41;20034;-69
2021/08/08 03:14:24;;;;;;;5.22;2.70;;;;;;;20.30;67.42;100084.16;3486427;41;20107;-69
2021/08/08 03:16:51;;;;;;;4.10;2.72;;;;;;;19.79;69.48;100090.91;3478764;41;20044;-71
2021/08/08 03:19:16;;;;;;;5.72;3.40;;;;;;;20.08;68.75;100092.47;3477763;41;20049;-73
2021/08/08 03:21:43;;;;;;;5.15;2.65;;;;;;;19.81;69.87;100089.06;3475713;41;20398;-69
2021/08/08 03:24:09;;;;;;;5.22;2.95;;;;;;;19.92;67.81;100090.97;3473978;41;20068;-70
2021/08/08 03:26:36;;;;;;;6.70;2.58;;;;;;;20.03;66.99;100093.66;3474900;41;20070;-70
2021/08/08 03:29:04;;;;;;;4.53;2.78;;;;;;;19.80;68.13;100097.75;3475203;41;20058;-70
2021/08/08 03:31:30;;;;;;;5.85;2.53;;;;;;;19.74;68.15;100109.28;3474747;41;20038;-69
2021/08/08 03:33:56;;;;;;;5.68;2.72;;;;;;;20.10;66.55;100098.34;3476865;41;20056;-69
2021/08/08 03:36:23;;;;;;;9.15;2.60;;;;;;;20.19;66.21;100105.53;3476737;41;20038;-68
2021/08/08 03:38:49;;;;;;;4.75;3.08;;;;;;;20.14;66.22;100115.31;3476634;41;20042;-70
2021/08/08 03:41:16;;;;;;;7.28;2.88;;;;;;;20.13;66.98;100111.06;3483390;41;20037;-70
2021/08/08 03:43:41;;;;;;;5.70;2.70;;;;;;;20.26;66.13;100105.97;3475757;41;20064;-68
2021/08/08 03:46:07;;;;;;;6.97;2.97;;;;;;;19.90;66.70;100116.88;3474443;41;20034;-69
2021/08/08 03:48:33;;;;;;;4.63;3.22;;;;;;;19.88;67.74;100116.16;3475057;41;20042;-69
2021/08/08 03:56:39;;;;;;;4.07;2.53;;;;;;;19.94;67.40;100118.34;3487167;40;20131;-69
2021/08/08 03:59:07;;;;;;;5.45;2.40;;;;;;;20.16;67.53;100121.19;3479423;41;20071;-69
2021/08/08 04:01:33;;;;;;;4.70;2.60;;;;;;;20.80;64.91;100125.50;3476140;41;20375;-73
2021/08/08 04:03:59;;;;;;;3.80;2.70;;;;;;;20.61;65.33;100125.09;3475544;41;20135;-70
2021/08/08 04:06:25;;;;;;;3.63;2.83;;;;;;;20.89;65.03;100124.06;3476195;41;20077;-70
2021/08/08 04:08:50;;;;;;;5.55;2.90;;;;;;;20.95;63.49;100132.25;3468405;41;20451;-70
2021/08/08 04:11:17;;;;;;;10.43;2.90;;;;;;;21.04;63.44;100136.81;3476796;41;20038;-72
2021/08/08 04:13:43;;;;;;;4.38;2.63;;;;;;;20.83;65.75;100150.34;3476240;41;20433;-70
2021/08/08 04:16:09;;;;;;;5.30;2.90;;;;;;;21.02;64.68;100137.84;3475661;41;20046;-69
2021/08/08 04:18:35;;;;;;;3.47;2.90;;;;;;;20.85;65.72;100143.31;3475734;41;20064;-70
2021/08/08 04:21:01;;;;;;;16.50;3.13;;;;;;;20.77;65.77;100143.84;3474613;41;20410;-73
2021/08/08 04:23:28;;;;;;;5.93;2.92;;;;;;;21.32;64.66;100139.16;3474677;41;20038;-69
2021/08/08 04:25:54;;;;;;;7.50;2.72;;;;;;;21.15;65.02;100139.50;3474896;41;20042;-70
2021/08/08 04:28:20;;;;;;;3.33;2.80;;;;;;;21.36;63.97;100144.94;3475592;41;20042;-70
2021/08/08 04:30:46;;;;;;;4.32;2.85;;;;;;;21.56;63.15;100137.44;3473463;41;20106;-71
2021/08/08 04:33:12;;;;;;;6.93;3.00;;;;;;;21.27;63.56;100151.56;3464417;41;20049;-69
2021/08/08 04:35:38;;;;;;;4.88;2.60;;;;;;;21.30;63.25;100150.53;3472968;41;20398;-69
2021/08/08 04:38:06;;;;;;;3.83;2.78;;;;;;;21.34;62.97;100149.38;3464819;41;20043;-70
2021/08/08 04:40:33;;;;;;;4.30;2.67;;;;;;;21.41;63.34;100155.81;3473588;41;20046;-69
2021/08/08 04:42:59;;;;;;;3.53;2.60;;;;;;;21.56;63.12;100159.91;3476771;41;20045;-69
2021/08/08 04:45:26;;;;;;;4.93;2.53;;;;;;;21.30;63.46;100161.72;3476279;41;20057;-70
2021/08/08 04:47:52;;;;;;;5.40;2.80;;;;;;;21.35;62.81;100154.44;3476361;41;20057;-70
2021/08/08 04:50:19;;;;;;;5.43;2.50;;;;;;;21.72;61.92;100163.06;3476652;41;20045;-70
2021/08/08 04:52:48;;;;;;;5.22;2.80;;;;;;;22.08;60.58;100162.22;3474313;41;20049;-71
2021/08/08 04:55:15;;;;;;;7.47;2.78;;;;;;;22.40;60.84;100164.09;3475354;41;20038;-70
2021/08/08 05:01:21;;;;;;;6.78;2.55;;;;;;;22.79;59.75;100165.53;3474224;41;20068;-70
2021/08/08 05:03:46;;;;;;;7.18;2.90;;;;;;;22.73;58.94;100167.75;3474391;41;20034;-69
2021/08/08 05:06:13;;;;;;;3.47;2.85;;;;;;;23.05;58.85;100161.81;3474294;41;20407;-73
2021/08/08 05:08:39;;;;;;;5.72;2.78;;;;;;;23.17;58.22;100168.66;3475957;41;20050;-70
2021/08/08 05:11:32;;;;;;;8.43;2.65;;;;;;;23.62;57.41;100171.22;3473632;41;20432;-72
2021/08/08 05:13:59;;;;;;;10.18;2.90;;;;;;;23.91;56.67;100180.94;3443400;41;20108;-70
2021/08/08 05:16:25;;;;;;;7.15;2.60;;;;;;;23.90;57.49;100173.28;3446073;41;20046;-69
2021/08/08 05:18:51;;;;;;;5.20;2.60;;;;;;;24.41;54.28;100173.47;3447056;41;20043;-70
2021/08/08 05:21:17;;;;;;;3.90;2.60;;;;;;;24.00;54.20;100177.63;3446747;41;20039;-69
2021/08/08 05:23:43;;;;;;;4.43;2.67;;;;;;;24.77;53.17;100176.50;3447566;41;20047;-69
2021/08/08 05:26:09;;;;;;;3.55;2.53;;;;;;;24.94;52.67;100183.69;3447270;41;20478;-68
2021/08/08 05:28:40;;;;;;;3.90;2.20;;;;;;;24.65;53.26;100182.69;3446883;41;20039;-68
2021/08/08 05:31:06;;;;;;;;;;;;;;;24.79;53.06;100187.59;3448238;41;20039;-66
2021/08/08 05:33:32;;;;;;;3.95;2.47;;;;;;;25.02;52.84;100182.25;3447682;41;19949;-67
2021/08/08 05:35:57;;;;;;;3.53;2.50;;;;;;;25.16;52.67;100182.72;3448392;41;20050;-69
2021/08/08 05:38:23;;;;;;;4.53;2.40;;;;;;;25.50;50.80;100176.31;3447959;41;20035;-69
2021/08/08 05:40:51;;;;;;;2.80;1.98;;;;;;;25.90;50.76;100175.41;3446759;41;20036;-67
2021/08/08 05:43:18;;;;;;;7.03;2.50;;;;;;;25.99;50.76;100179.84;3447388;41;20132;-70
2021/08/08 05:45:47;;;;;;;3.67;2.53;;;;;;;26.05;50.35;100174.88;3446722;41;20055;-70
2021/08/08 05:48:21;;;;;;;4.13;2.40;;;;;;;26.41;49.82;100170.78;3439000;41;20158;-70
2021/08/08 05:50:47;;;;;;;10.88;2.70;;;;;;;26.31;49.53;100169.97;3461831;41;20045;-70
2021/08/08 05:53:13;;;;;;;4.07;2.10;;;;;;;25.84;48.41;100174.19;3475950;41;20041;-69
2021/08/08 05:55:46;;;;;;;4.20;2.05;;;;;;;26.35;49.87;100173.94;3475817;41;20045;-70
2021/08/08 05:58:13;;;;;;;2.67;2.15;;;;;;;25.87;50.09;100173.09;3475597;41;20438;-70
2021/08/08 06:00:40;;;;;;;3.85;2.30;;;;;;;26.25;49.76;100158.31;3475789;41;20049;-70
2021/08/08 06:03:10;;;;;;;3.83;2.20;;;;;;;26.72;48.31;100168.88;3474350;41;20065;-75
2021/08/08 06:05:37;;;;;;;3.55;2.20;;;;;;;26.37;49.23;100169.41;3476355;41;20046;-70
2021/08/08 06:08:05;;;;;;;3.15;2.20;;;;;;;26.62;48.58;100168.84;3476470;41;20436;-70
2021/08/08 06:10:30;;;;;;;4.07;2.40;;;;;;;27.20;48.68;100164.28;3476072;41;20042;-71
2021/08/08 06:12:57;;;;;;;4.43;1.90;;;;;;;27.47;46.79;100176.56;3476112;41;20314;-70
2021/08/08 06:15:23;;;;;;;2.60;2.17;;;;;;;26.54;48.39;100166.13;3476652;41;20042;-70
2021/08/08 06:17:49;;;;;;;2.83;2.10;;;;;;;26.99;47.92;100161.91;3476755;41;20042;-70
2021/08/08 06:20:15;;;;;;;4.07;2.33;;;;;;;27.98;45.43;100163.75;3477095;41;20045;-71
2021/08/08 06:22:41;;;;;;;3.80;2.08;;;;;;;28.19;46.04;100164.25;3476936;41;20042;-72
2021/08/08 06:25:07;;;;;;;2.88;2.08;;;;;;;28.50;45.80;100159.44;3475795;41;20315;-69
2021/08/08 06:27:33;;;;;;;4.25;2.05;;;;;;;28.47;45.05;100164.97;3475269;41;20425;-70
2021/08/08 06:29:59;;;;;;;4.57;2.10;;;;;;;28.50;44.66;100169.91;3474815;41;20146;-70
2021/08/08 06:32:24;;;;;;;2.47;2.00;;;;;;;28.24;44.21;100167.25;3475145;41;20085;-71
2021/08/08 06:34:50;;;;;;;3.20;1.88;;;;;;;28.74;44.11;100170.13;3475100;41;20052;-70
2021/08/08 06:37:17;;;;;;;2.83;2.10;;;;;;;28.95;43.32;100175.81;3474320;41;20038;-72
2021/08/08 06:39:44;;;;;;;3.80;1.65;;;;;;;28.79;43.09;100179.16;3474685;41;20034;-70
2021/08/08 06:42:11;;;;;;;3.30;2.00;;;;;;;28.91;42.28;100177.09;3474976;41;20050;-68
2021/08/08 06:44:37;;;;;;;3.45;2.50;;;;;;;28.86;43.27;100174.94;3475383;41;20034;-70
2021/08/08 06:47:04;;;;;;;3.60;2.40;;;;;;;28.33;43.38;100176.00;3474689;41;20034;-71
2021/08/08 06:54:20;;;;;;;10.27;3.40;;;;;;;29.24;42.10;100180.75;3480573;41;20558;-70
2021/08/08 06:56:46;;;;;;;6.50;3.10;;;;;;;29.25;41.67;100172.72;3474527;41;20406;-72
2021/08/08 06:59:21;;;;;;;7.93;3.50;;;;;;;29.47;41.01;100169.53;3475594;41;20138;-70
2021/08/08 07:01:47;;;;;;;10.10;3.70;;;;;;;29.76;40.70;100172.59;3476867;41;20126;-72
2021/08/08 07:04:13;;;;;;;14.48;4.55;;;;;;;29.95;40.07;100168.84;3475481;41;20042;-70
2021/08/08 07:06:39;;;;;;;10.88;3.80;;;;;;;29.58;39.83;100176.25;3475380;41;20439;-72
2021/08/08 07:09:07;;;;;;;6.15;3.70;;;;;;;29.92;40.06;100175.25;3475435;41;20109;-70
2021/08/08 07:11:37;;;;;;;9.13;4.32;;;;;;;30.93;39.32;100173.94;3476135;41;20402;-71
2021/08/08 07:14:03;;;;;;;7.22;3.30;;;;;;;30.10;39.64;100172.47;3477018;41;20037;-70
2021/08/08 07:16:29;;;;;;;6.63;3.30;;;;;;;30.20;39.38;100174.94;3475039;41;20124;-70
2021/08/08 07:18:55;;;;;;;8.10;3.53;;;;;;;29.85;39.67;100178.69;3474054;41;20042;-70
2021/08/08 07:21:21;;;;;;;6.93;3.42;;;;;;;30.46;40.04;100170.38;3475701;41;20045;-71
2021/08/08 07:23:47;;;;;;;3.97;2.10;;;;;;;30.73;36.23;100173.44;3475873;41;20042;-71
2021/08/08 07:26:13;;;;;;;5.13;2.10;;;;;;;31.24;37.17;100171.34;3475132;41;20038;-71
2021/08/08 07:28:40;;;;;;;2.47;1.70;;;;;;;30.68;36.99;100175.75;3475544;41;20407;-69
2021/08/08 07:31:06;;;;;;;4.38;1.85;;;;;;;31.43;36.07;100171.81;3475218;41;20038;-71
2021/08/08 07:33:32;;;;;;;3.72;1.98;;;;;;;31.18;37.81;100178.09;3475706;41;20306;-71
2021/08/08 07:35:58;;;;;;;5.03;2.10;;;;;;;30.56;37.13;100176.28;3483601;41;20046;-71
2021/08/08 07:38:24;;;;;;;3.10;2.00;;;;;;;30.96;36.74;100181.47;3475986;41;20034;-70
2021/08/08 07:40:50;;;;;;;4.13;2.13;;;;;;;30.54;36.97;100181.69;3476538;41;20060;-71
2021/08/08 07:43:16;;;;;;;8.40;2.00;;;;;;;30.57;37.66;100177.91;3476586;41;20042;-71
2021/08/08 07:45:42;;;;;;;3.33;1.90;;;;;;;31.59;35.82;100181.44;3476895;41;20042;-71
2021/08/08 07:48:08;;;;;;;6.93;2.40;;;;;;;31.12;36.79;100180.63;3477909;41;20076;-71
2021/08/08 07:50:34;;;;;;;6.03;1.95;;;;;;;31.50;35.44;100185.06;3476035;41;20049;-69
2021/08/08 07:53:00;;;;;;;4.38;1.85;;;;;;;31.48;35.69;100187.06;3475182;41;20053;-73
2021/08/08 08:01:34;;;;;;;4.85;2.03;;;;;;;31.67;35.18;100193.72;3481787;41;20065;-71
2021/08/08 08:04:00;;;;;;;2.70;1.75;;;;;;;31.41;35.98;100194.81;3474368;41;20049;-71
2021/08/08 08:06:25;;;;;;;6.40;2.08;;;;;;;32.30;34.25;100200.38;3475924;41;20042;-71
2021/08/08 08:08:51;;;;;;;4.32;1.63;;;;;;;31.52;35.82;100199.69;3484926;41;20045;-72
2021/08/08 08:11:17;;;;;;;3.75;1.60;;;;;;;31.63;35.25;100193.25;3486010;41;20074;-72
2021/08/08 08:13:43;;;;;;;4.75;1.63;;;;;;;32.28;34.22;100191.03;3485176;41;20056;-73
2021/08/08 08:16:09;;;;;;;2.75;1.65;;;;;;;31.80;34.70;100193.94;3484713;41;20034;-71
2021/08/08 08:18:35;;;;;;;3.90;1.45;;;;;;;32.24;33.65;100195.00;3475476;41;20073;-70
2021/08/08 08:21:01;;;;;;;3.47;1.52;;;;;;;32.46;34.13;100191.56;3484566;41;20068;-71
2021/08/08 08:23:27;;;;;;;4.82;1.60;;;;;;;32.62;34.47;100194.06;3484819;41;20046;-71
2021/08/08 08:25:53;;;;;;;4.25;1.60;;;;;;;32.48;33.12;100199.28;3484940;41;20045;-72
2021/08/08 08:28:19;;;;;;;4.85;1.60;;;;;;;32.94;33.36;100193.69;3475973;41;20038;-70
2021/08/08 08:30:45;;;;;;;2.80;1.67;;;;;;;33.01;32.81;100189.38;3484680;41;20034;-71
2021/08/08 08:33:11;;;;;;;2.10;1.38;;;;;;;32.57;33.14;100195.56;3484631;41;20405;-70
2021/08/08 08:35:38;;;;;;;3.30;1.70;;;;;;;32.22;33.58;100192.56;3485048;41;20053;-71
2021/08/08 08:38:03;;;;;;;2.10;1.60;;;;;;;33.21;33.18;100187.00;3484359;41;20390;-71
2021/08/08 08:40:36;;;;;;;2.63;1.80;;;;;;;33.13;32.02;100187.94;3484223;41;20048;-70
2021/08/08 08:43:05;;;;;;;4.72;1.90;;;;;;;32.72;32.79;100189.34;3484639;41;20176;-70
2021/08/08 08:45:32;;;;;;;4.18;1.80;;;;;;;32.69;33.03;100188.84;3483952;41;20059;-74
2021/08/08 08:47:58;;;;;;;3.00;1.70;;;;;;;32.12;33.28;100176.16;3484217;41;20421;-72
2021/08/08 08:50:26;;;;;;;1.67;1.58;;;;;;;33.14;32.46;100175.56;3483724;41;20037;-71
2021/08/08 08:52:53;;;;;;;3.70;1.70;;;;;;;33.19;31.48;100173.19;3485002;41;20495;-71
2021/08/08 08:55:20;;;;;;;2.75;1.80;;;;;;;33.13;30.71;100179.19;3485531;41;20037;-71
2021/08/08 08:57:46;;;;;;;3.80;1.70;;;;;;;32.97;31.31;100190.75;3484993;41;20046;-70
2021/08/08 09:00:13;;;;;;;2.80;1.45;;;;;;;33.37;30.10;100171.00;3484743;41;20394;-73
2021/08/08 09:09:06;;;;;;;2.83;1.85;;;;;;;33.78;29.86;100165.97;3474299;41;20042;-71
2021/08/08 09:11:43;;;;;;;2.40;1.60;;;;;;;34.14;29.16;100165.97;3474052;41;20026;-71
2021/08/08 09:14:11;;;;;;;3.03;1.67;;;;;;;33.58;29.42;100171.06;3474985;41;20042;-72
2021/08/08 09:16:42;;;;;;;2.20;1.80;;;;;;;34.00;28.87;100172.94;3475153;41;20042;-71
2021/08/08 09:19:20;;;;;;;3.95;1.98;;;;;;;33.19;29.56;100163.47;3475407;41;20049;-70
2021/08/08 09:21:46;;;;;;;2.25;1.52;;;;;;;33.08;29.80;100163.13;3465880;41;20458;-72
2021/08/08 09:24:21;;;;;;;3.10;1.70;;;;;;;34.20;29.23;100152.00;3475545;41;20086;-71
2021/08/08 09:26:47;;;;;;;4.70;1.85;;;;;;;33.74;29.49;100152.34;3474576;41;20306;-71
2021/08/08 09:29:15;;;;;;;2.00;1.60;;;;;;;34.30;28.45;100149.84;3472292;41;20066;-71
2021/08/08 09:31:47;;;;;;;2.13;1.75;;;;;;;34.24;27.61;100142.69;3472986;41;20038;-72
2021/08/08 09:34:33;;;;;;;1.90;1.60;;;;;;;33.80;28.20;100143.69;3463358;41;20394;-71
2021/08/08 09:37:03;;;;;;;1.52;1.25;;;;;;;35.50;27.06;100144.88;3473275;41;20042;-71
2021/08/08 09:39:43;;;;;;;2.83;1.70;;;;;;;34.78;27.73;100146.34;3473357;41;20373;-71
2021/08/08 09:42:16;;;;;;;2.78;1.60;;;;;;;34.41;28.06;100139.56;3474480;41;20098;-71
2021/08/08 09:45:00;;;;;;;4.47;1.58;;;;;;;35.25;27.26;100138.47;3473701;41;20398;-71
2021/08/08 09:47:47;;;;;;;1.90;1.70;;;;;;;33.77;27.64;100144.06;3473316;41;20402;-71
2021/08/08 09:50:24;;;;;;;3.85;1.45;;;;;;;34.36;28.01;100139.34;3473410;41;20318;-71
2021/08/08 09:52:55;;;;;;;1.85;1.50;;;;;;;33.82;27.30;100135.56;3473554;41;20052;-71
2021/08/08 09:55:25;;;;;;;5.43;1.63;;;;;;;34.26;27.42;100132.75;3473201;41;20086;-72
2021/08/08 09:57:51;;;;;;;1.57;1.47;;;;;;;34.79;26.53;100140.03;3472957;41;20159;-72
2021/08/08 10:00:27;;;;;;;1.80;1.50;;;;;;;34.70;26.92;100128.00;3463554;41;20069;-70
2021/08/08 10:02:53;;;;;;;2.30;1.60;;;;;;;33.64;28.50;100128.09;3474826;41;20434;-71
2021/08/08 10:05:20;;;;;;;3.58;1.77;;;;;;;35.08;27.35;100118.69;3475744;41;20042;-71
2021/08/08 10:11:21;;;;;;;4.25;1.70;;;;;;;35.44;27.26;100113.91;3482522;41;20064;-69
2021/08/08 10:13:56;;;;;;;2.10;1.50;;;;;;;35.16;26.68;100121.13;3480402;41;20192;-71
2021/08/08 10:16:22;;;;;;;4.82;1.70;;;;;;;33.91;27.98;100118.63;3483879;41;20133;-71
2021/08/08 10:18:54;;;;;;;4.30;1.63;;;;;;;35.43;27.90;100106.97;3483740;41;20329;-73
2021/08/08 10:21:20;;;;;;;2.67;1.42;;;;;;;35.05;27.24;100112.94;3482679;41;20049;-71
2021/08/08 10:23:48;;;;;;;3.38;1.48;;;;;;;35.30;26.23;100111.44;3474756;41;20558;-69
2021/08/08 10:26:14;;;;;;;1.98;1.60;;;;;;;34.40;27.51;100110.69;3483582;41;20291;-71
2021/08/08 10:28:41;;;;;;;2.38;1.60;;;;;;;34.55;27.06;100111.44;3484099;41;20065;-71
2021/08/08 10:31:09;;;;;;;1.83;1.70;;;;;;;34.54;26.71;100112.44;3483880;41;20324;-71
2021/08/08 10:33:47;;;;;;;2.33;1.90;;;;;;;35.82;26.39;100106.25;3484236;41;20045;-70
2021/08/08 10:36:21;;;;;;;2.65;1.50;;;;;;;34.74;26.89;100108.94;3484505;41;20049;-69
2021/08/08 10:38:47;;;;;;;2.28;1.77;;;;;;;34.90;27.20;100102.50;3484365;41;20065;-71
2021/08/08 10:41:13;;;;;;;3.70;1.60;;;;;;;35.55;26.42;100101.94;3474787;41;20045;-71
2021/08/08 10:43:44;;;;;;;2.42;1.90;;;;;;;35.39;26.31;100095.16;3484239;41;20389;-71
2021/08/08 10:46:12;;;;;;;3.00;1.60;;;;;;;35.43;27.29;100096.41;3475833;41;20058;-71
2021/08/08 10:48:41;;;;;;;3.80;1.92;;;;;;;35.76;26.04;100099.13;3484704;41;20072;-72
2021/08/08 10:51:25;;;;;;;2.83;1.85;;;;;;;35.63;26.11;100097.28;3484881;41;20044;-71
2021/08/08 10:54:05;;;;;;;2.70;1.67;;;;;;;35.04;26.40;100096.28;3486588;41;20057;-73
2021/08/08 10:56:46;;;;;;;2.42;1.58;;;;;;;35.93;25.79;100091.63;3485063;41;20081;-70
2021/08/08 10:59:23;;;;;;;3.17;1.67;;;;;;;34.96;25.73;100087.66;3485463;41;20064;-71
2021/08/08 11:02:09;;;;;;;2.13;1.50;;;;;;;36.46;24.52;100094.06;3484867;41;20040;-71
2021/08/08 11:04:36;;;;;;;4.43;1.50;;;;;;;35.99;25.36;100080.22;3485099;41;20049;-74
2021/08/08 11:07:05;;;;;;;4.00;1.65;;;;;;;35.56;25.24;100080.56;3475349;41;20050;-71
2021/08/08 11:09:36;;;;;;;3.80;1.38;;;;;;;35.41;26.16;100079.91;3484850;41;20049;-72
2021/08/08 11:12:04;;;;;;;2.20;1.60;;;;;;;35.46;26.51;100074.84;3484492;41;20309;-71
2021/08/08 11:14:30;;;;;;;2.13;1.70;;;;;;;35.19;25.78;100080.25;3483094;41;20059;-71
2021/08/08 11:17:05;;;;;;;5.72;1.98;;;;;;;36.28;25.89;100082.44;3484990;41;20045;-73
2021/08/08 11:19:43;;;;;;;4.80;1.55;;;;;;;35.93;26.44;100073.91;3474461;41;20057;-71
2021/08/08 11:22:14;;;;;;;3.15;1.63;;;;;;;35.61;25.29;100075.50;3473479;41;20438;-71
2021/08/08 11:24:42;;;;;;;2.40;1.50;;;;;;;35.60;25.93;100068.56;3474771;41;20043;-72
2021/08/08 11:27:10;;;;;;;4.40;1.80;;;;;;;36.21;24.84;100079.00;3474803;41;20042;-71
2021/08/08 11:29:36;;;;;;;2.70;1.80;;;;;;;35.43;25.61;100069.13;3473728;41;20299;-70
2021/08/08 11:32:07;;;;;;;2.63;1.65;;;;;;;36.71;24.42;100072.16;3474116;41;20045;-71
2021/08/08 11:34:34;;;;;;;1.90;1.55;;;;;;;36.03;25.26;100068.19;3474005;41;20038;-72
2021/08/08 11:36:59;;;;;;;3.72;1.52;;;;;;;35.56;25.64;100063.84;3474364;41;20080;-71
2021/08/08 11:39:34;;;;;;;2.22;1.60;;;;;;;35.00;25.06;100067.78;3473591;41;20125;-72
2021/08/08 11:42:05;;;;;;;2.42;1.55;;;;;;;35.65;24.98;100063.50;3475017;41;20050;-71
2021/08/08 11:44:41;;;;;;;;;;;;;;;35.88;24.84;100063.06;3475036;41;20037;-71
2021/08/08 11:47:09;;;;;;;3.65;1.60;;;;;;;36.17;24.51;100059.22;3474544;41;19944;-73
2021/08/08 11:49:45;;;;;;;1.65;1.40;;;;;;;36.58;24.34;100051.81;3474232;41;20049;-71
2021/08/08 11:52:15;;;;;;;2.22;1.33;;;;;;;35.64;24.82;100048.59;3474218;41;20041;-72
2021/08/08 11:54:42;;;;;;;2.22;1.52;;;;;;;36.51;24.39;100051.81;3473943;41;20050;-71
2021/08/08 11:57:09;;;;;;;4.22;2.70;;;;;;;35.77;24.70;100039.88;3474095;41;20038;-71
2021/08/08 11:59:37;;;;;;;3.78;1.63;;;;;;;36.49;24.02;100043.25;3474000;41;20034;-72
2021/08/08 12:02:04;;;;;;;4.22;1.90;;;;;;;35.87;25.37;100040.28;3473651;41;20046;-71
2021/08/08 12:04:33;;;;;;;3.33;1.90;;;;;;;36.82;24.96;100043.16;3473952;41;20138;-75
2021/08/08 12:07:02;;;;;;;2.28;1.70;;;;;;;36.06;25.79;100039.47;3474256;41;20406;-72
2021/08/08 12:09:28;;;;;;;2.83;1.80;;;;;;;36.47;23.53;100033.88;3474451;41;20042;-70
2021/08/08 12:19:24;;;;;;;4.05;2.20;;;;;;;36.73;24.22;100028.50;3480342;41;20181;-70
2021/08/08 12:22:00;;;;;;;2.58;1.50;;;;;;;37.03;23.89;100029.63;3481536;41;20333;-72
2021/08/08 12:24:41;;;;;;;3.05;1.80;;;;;;;37.64;22.98;100035.13;3473900;41;20313;-72
2021/08/08 12:27:08;;;;;;;1.65;1.30;;;;;;;36.67;24.42;100025.91;3483113;41;20050;-71
2021/08/08 12:29:38;;;;;;;4.30;1.50;;;;;;;35.82;24.84;100033.94;3482350;41;20053;-70
2021/08/08 12:32:13;;;;;;;3.50;1.63;;;;;;;35.49;25.62;100026.00;3482587;41;20045;-72